sensor_id;sensor_type;location;lat;lon;timestamp;pressure;altitude;pressure_sealevel;temperature;humidity
44481;BME280;30184;42.018;23.670;2023-04-02T00:00:18;90674.03;;;3.14;94.41
44481;BME280;30184;42.018;23.670;2023-04-02T00:02:57;90224.19;;;0.29;93.72
44481;BME280;30184;42.018;23.670;2023-04-02T00:05:31;90269.28;;;-0.21;93.34
44481;BME280;30184;42.018;23.670;2023-04-02T00:08:24;90624.06;;;3.00;93.71
44481;BME280;30184;42.018;23.670;2023-04-02T00:10:57;90111.56;;;-0.50;93.33
44481;BME280;30184;42.018;23.670;2023-04-02T00:13:33;90374.97;;;1.19;93.69
44481;BME280;30184;42.018;23.670;2023-04-02T00:16:03;90639.84;;;2.94;94.01
44481;BME280;30184;42.018;23.670;2023-04-02T00:18:35;90422.09;;;0.61;93.90
44481;BME280;30184;42.018;23.670;2023-04-02T00:21:11;90726.00;;;2.93;94.08
44481;BME280;30184;42.018;23.670;2023-04-02T00:23:44;90640.69;;;2.88;93.51
44481;BME280;30184;42.018;23.670;2023-04-02T00:26:28;90359.31;;;0.84;93.43
44481;BME280;30184;42.018;23.670;2023-04-02T00:28:59;90754.34;;;2.90;93.96
44481;BME280;30184;42.018;23.670;2023-04-02T00:31:29;90454.84;;;1.74;94.06
44481;BME280;30184;42.018;23.670;2023-04-02T00:34:01;90623.41;;;2.92;94.31
44481;BME280;30184;42.018;23.670;2023-04-02T00:36:32;90155.78;;;-0.56;93.88
44481;BME280;30184;42.018;23.670;2023-04-02T00:39:16;90537.69;;;1.44;94.26
44481;BME280;30184;42.018;23.670;2023-04-02T00:41:47;90322.69;;;0.84;93.88
44481;BME280;30184;42.018;23.670;2023-04-02T00:44:27;90129.22;;;-1.11;93.46
44481;BME280;30184;42.018;23.670;2023-04-02T00:47:06;90681.50;;;2.99;94.00
44481;BME280;30184;42.018;23.670;2023-04-02T00:49:38;90243.03;;;-0.26;93.81
44481;BME280;30184;42.018;23.670;2023-04-02T00:52:11;90469.50;;;0.91;93.76
44481;BME280;30184;42.018;23.670;2023-04-02T00:54:46;90211.25;;;-0.48;93.22
44481;BME280;30184;42.018;23.670;2023-04-02T00:57:19;90396.31;;;0.85;93.34
44481;BME280;30184;42.018;23.670;2023-04-02T00:59:54;90161.59;;;-0.31;93.24
44481;BME280;30184;42.018;23.670;2023-04-02T01:02:28;90335.38;;;0.77;93.41
44481;BME280;30184;42.018;23.670;2023-04-02T01:04:59;90652.34;;;3.05;93.86
44481;BME280;30184;42.018;23.670;2023-04-02T01:07:52;90520.00;;;1.87;93.51
44481;BME280;30184;42.018;23.670;2023-04-02T01:10:46;90642.38;;;3.05;93.81
44481;BME280;30184;42.018;23.670;2023-04-02T01:13:24;90358.75;;;-0.20;93.32
44481;BME280;30184;42.018;23.670;2023-04-02T01:16:01;90440.25;;;0.77;93.20
44481;BME280;30184;42.018;23.670;2023-04-02T01:18:43;90413.44;;;0.91;92.93
44481;BME280;30184;42.018;23.670;2023-04-02T01:21:38;90172.56;;;-0.22;92.87
44481;BME280;30184;42.018;23.670;2023-04-02T01:24:11;90441.97;;;1.66;93.14
44481;BME280;30184;42.018;23.670;2023-04-02T01:26:58;90653.03;;;3.09;93.36
44481;BME280;30184;42.018;23.670;2023-04-02T01:29:32;90387.88;;;0.53;92.96
44481;BME280;30184;42.018;23.670;2023-04-02T01:32:06;90487.78;;;1.98;93.00
44481;BME280;30184;42.018;23.670;2023-04-02T01:34:38;90654.56;;;3.10;93.03
44481;BME280;30184;42.018;23.670;2023-04-02T01:37:23;90334.22;;;-0.01;92.55
44481;BME280;30184;42.018;23.670;2023-04-02T01:40:05;90654.97;;;3.08;92.98
44481;BME280;30184;42.018;23.670;2023-04-02T01:42:43;90517.53;;;0.95;92.85
44481;BME280;30184;42.018;23.670;2023-04-02T01:45:19;90859.88;;;3.04;92.63
44481;BME280;30184;42.018;23.670;2023-04-02T01:47:50;90679.56;;;3.03;92.28
44481;BME280;30184;42.018;23.670;2023-04-02T01:50:25;90459.16;;;1.65;92.19
44481;BME280;30184;42.018;23.670;2023-04-02T01:53:00;90158.59;;;-0.37;92.01
44481;BME280;30184;42.018;23.670;2023-04-02T01:55:37;90800.19;;;2.99;92.56
44481;BME280;30184;42.018;23.670;2023-04-02T01:58:08;90670.44;;;2.97;92.66
44481;BME280;30184;42.018;23.670;2023-04-02T02:00:40;90670.09;;;2.95;92.51
44481;BME280;30184;42.018;23.670;2023-04-02T02:03:11;90672.41;;;2.93;92.28
44481;BME280;30184;42.018;23.670;2023-04-02T02:05:41;90668.22;;;2.92;92.36
44481;BME280;30184;42.018;23.670;2023-04-02T02:08:14;90674.38;;;2.89;92.15
44481;BME280;30184;42.018;23.670;2023-04-02T02:10:49;90674.03;;;2.87;92.14
44481;BME280;30184;42.018;23.670;2023-04-02T02:13:18;90663.38;;;2.80;92.15
44481;BME280;30184;42.018;23.670;2023-04-02T02:15:51;90678.75;;;2.76;92.06
44481;BME280;30184;42.018;23.670;2023-04-02T02:18:20;90676.88;;;2.73;92.19
44481;BME280;30184;42.018;23.670;2023-04-02T02:20:50;90667.72;;;2.70;92.20
44481;BME280;30184;42.018;23.670;2023-04-02T02:23:20;90668.94;;;2.66;92.53
44481;BME280;30184;42.018;23.670;2023-04-02T02:25:49;90674.28;;;2.66;92.54
44481;BME280;30184;42.018;23.670;2023-04-02T02:28:23;90673.16;;;2.63;92.51
44481;BME280;30184;42.018;23.670;2023-04-02T02:30:56;90672.81;;;2.61;92.24
44481;BME280;30184;42.018;23.670;2023-04-02T02:33:29;90675.50;;;2.61;92.26
44481;BME280;30184;42.018;23.670;2023-04-02T02:36:03;90676.66;;;2.60;92.34
44481;BME280;30184;42.018;23.670;2023-04-02T02:38:41;90672.81;;;2.61;92.44
44481;BME280;30184;42.018;23.670;2023-04-02T02:41:23;90673.66;;;2.54;92.35
44481;BME280;30184;42.018;23.670;2023-04-02T02:44:03;90671.75;;;2.55;92.30
44481;BME280;30184;42.018;23.670;2023-04-02T02:46:36;90683.66;;;2.50;92.28
44481;BME280;30184;42.018;23.670;2023-04-02T02:49:11;90686.31;;;2.50;92.08
44481;BME280;30184;42.018;23.670;2023-04-02T02:51:43;90680.63;;;2.48;92.14
44481;BME280;30184;42.018;23.670;2023-04-02T02:54:19;90676.06;;;2.45;92.36
44481;BME280;30184;42.018;23.670;2023-04-02T02:56:49;90675.69;;;2.43;92.55
44481;BME280;30184;42.018;23.670;2023-04-02T02:59:21;90675.31;;;2.45;92.50
44481;BME280;30184;42.018;23.670;2023-04-02T03:01:53;90674.91;;;2.46;92.62
44481;BME280;30184;42.018;23.670;2023-04-02T03:04:22;90677.59;;;2.46;92.53
44481;BME280;30184;42.018;23.670;2023-04-02T03:06:54;90680.25;;;2.46;92.76
44481;BME280;30184;42.018;23.670;2023-04-02T03:09:31;90677.94;;;2.48;92.61
44481;BME280;30184;42.018;23.670;2023-04-02T03:12:04;90681.78;;;2.47;92.61
44481;BME280;30184;42.018;23.670;2023-04-02T03:14:37;90677.97;;;2.45;92.45
44481;BME280;30184;42.018;23.670;2023-04-02T03:17:09;90675.34;;;2.41;92.15
44481;BME280;30184;42.018;23.670;2023-04-02T03:19:42;90680.69;;;2.41;92.09
44481;BME280;30184;42.018;23.670;2023-04-02T03:22:13;90684.13;;;2.42;92.16
44481;BME280;30184;42.018;23.670;2023-04-02T03:24:46;90684.94;;;2.39;92.15
44481;BME280;30184;42.018;23.670;2023-04-02T03:27:18;90682.28;;;2.39;92.00
44481;BME280;30184;42.018;23.670;2023-04-02T03:29:51;90681.50;;;2.38;92.19
44481;BME280;30184;42.018;23.670;2023-04-02T03:32:24;90683.44;;;2.38;92.26
44481;BME280;30184;42.018;23.670;2023-04-02T03:34:57;90681.13;;;2.40;92.42
44481;BME280;30184;42.018;23.670;2023-04-02T03:37:29;90676.53;;;2.40;92.31
44481;BME280;30184;42.018;23.670;2023-04-02T03:40:01;90687.22;;;2.40;92.31
44481;BME280;30184;42.018;23.670;2023-04-02T03:42:36;90685.31;;;2.41;92.19
44481;BME280;30184;42.018;23.670;2023-04-02T03:45:09;90685.31;;;2.41;92.25
44481;BME280;30184;42.018;23.670;2023-04-02T03:47:43;90681.88;;;2.40;92.31
44481;BME280;30184;42.018;23.670;2023-04-02T03:50:16;90679.59;;;2.39;92.10
44481;BME280;30184;42.018;23.670;2023-04-02T03:52:49;90686.09;;;2.38;92.16
44481;BME280;30184;42.018;23.670;2023-04-02T03:55:20;90680.75;;;2.38;92.19
44481;BME280;30184;42.018;23.670;2023-04-02T03:57:52;90677.69;;;2.39;92.38
44481;BME280;30184;42.018;23.670;2023-04-02T04:00:28;90690.69;;;2.37;92.62
44481;BME280;30184;42.018;23.670;2023-04-02T04:03:04;90686.88;;;2.38;92.41
44481;BME280;30184;42.018;23.670;2023-04-02T04:05:35;90685.34;;;2.37;92.13
44481;BME280;30184;42.018;23.670;2023-04-02T04:08:07;90689.94;;;2.37;92.50
44481;BME280;30184;42.018;23.670;2023-04-02T04:10:40;90681.50;;;2.38;92.54
44481;BME280;30184;42.018;23.670;2023-04-02T04:13:11;90686.03;;;2.41;92.56
44481;BME280;30184;42.018;23.670;2023-04-02T04:15:41;90689.84;;;2.44;92.62
44481;BME280;30184;42.018;23.670;2023-04-02T04:18:18;90695.56;;;2.46;92.72
44481;BME280;30184;42.018;23.670;2023-04-02T04:20:51;90692.09;;;2.49;92.67
44481;BME280;30184;42.018;23.670;2023-04-02T04:23:28;90691.34;;;2.48;92.68
44481;BME280;30184;42.018;23.670;2023-04-02T04:26:01;90696.63;;;2.52;92.56
44481;BME280;30184;42.018;23.670;2023-04-02T04:28:41;90703.91;;;2.51;92.35
44481;BME280;30184;42.018;23.670;2023-04-02T04:31:14;90705.44;;;2.52;92.08
44481;BME280;30184;42.018;23.670;2023-04-02T04:33:52;90703.13;;;2.54;92.20
44481;BME280;30184;42.018;23.670;2023-04-02T04:36:32;90705.00;;;2.57;92.11
44481;BME280;30184;42.018;23.670;2023-04-02T04:39:11;90689.25;;;2.63;92.07
44481;BME280;30184;42.018;23.670;2023-04-02T04:41:45;90711.00;;;2.69;92.02
44481;BME280;30184;42.018;23.670;2023-04-02T04:44:18;90709.78;;;2.73;91.90
44481;BME280;30184;42.018;23.670;2023-04-02T04:46:54;90713.13;;;2.81;92.04
44481;BME280;30184;42.018;23.670;2023-04-02T04:49:29;90717.25;;;2.89;91.84
44481;BME280;30184;42.018;23.670;2023-04-02T04:52:05;90722.88;;;2.98;91.66
44481;BME280;30184;42.018;23.670;2023-04-02T04:54:36;90723.59;;;3.02;90.52
44481;BME280;30184;42.018;23.670;2023-04-02T04:57:15;90720.44;;;3.07;90.00
44481;BME280;30184;42.018;23.670;2023-04-02T04:59:48;90718.00;;;3.20;89.81
44481;BME280;30184;42.018;23.670;2023-04-02T05:02:22;90719.41;;;3.28;89.56
44481;BME280;30184;42.018;23.670;2023-04-02T05:04:55;90725.38;;;3.39;89.52
44481;BME280;30184;42.018;23.670;2023-04-02T05:07:26;90738.25;;;3.51;89.47
44481;BME280;30184;42.018;23.670;2023-04-02T05:09:57;90733.47;;;3.62;89.54
44481;BME280;30184;42.018;23.670;2023-04-02T05:12:35;90733.31;;;3.73;88.85
44481;BME280;30184;42.018;23.670;2023-04-02T05:15:09;90733.53;;;3.82;88.18
44481;BME280;30184;42.018;23.670;2023-04-02T05:17:44;90733.53;;;3.82;87.22
44481;BME280;30184;42.018;23.670;2023-04-02T05:20:20;90730.28;;;3.94;87.37
44481;BME280;30184;42.018;23.670;2023-04-02T05:22:55;90729.81;;;3.99;86.91
44481;BME280;30184;42.018;23.670;2023-04-02T05:25:26;90741.63;;;4.05;86.55
44481;BME280;30184;42.018;23.670;2023-04-02T05:28:01;90747.97;;;4.15;86.42
44481;BME280;30184;42.018;23.670;2023-04-02T05:30:42;90748.97;;;4.25;86.37
44481;BME280;30184;42.018;23.670;2023-04-02T05:33:18;90743.13;;;4.30;85.77
44481;BME280;30184;42.018;23.670;2023-04-02T05:35:54;90741.81;;;4.38;85.80
44481;BME280;30184;42.018;23.670;2023-04-02T05:38:36;90744.72;;;4.47;85.74
44481;BME280;30184;42.018;23.670;2023-04-02T05:41:07;90744.94;;;4.56;85.13
44481;BME280;30184;42.018;23.670;2023-04-02T05:43:48;90749.47;;;4.63;84.14
44481;BME280;30184;42.018;23.670;2023-04-02T05:46:21;90746.44;;;4.80;84.04
44481;BME280;30184;42.018;23.670;2023-04-02T05:48:53;90746.97;;;4.92;83.77
44481;BME280;30184;42.018;23.670;2023-04-02T05:51:26;90748.63;;;5.05;83.14
44481;BME280;30184;42.018;23.670;2023-04-02T05:54:00;90743.31;;;5.21;82.82
44481;BME280;30184;42.018;23.670;2023-04-02T05:56:32;90749.28;;;5.29;81.93
44481;BME280;30184;42.018;23.670;2023-04-02T05:59:09;90759.81;;;5.40;81.80
44481;BME280;30184;42.018;23.670;2023-04-02T06:01:39;90756.16;;;5.50;81.82
44481;BME280;30184;42.018;23.670;2023-04-02T06:04:18;90755.00;;;5.51;80.06
44481;BME280;30184;42.018;23.670;2023-04-02T06:06:51;90748.22;;;5.62;79.71
44481;BME280;30184;42.018;23.670;2023-04-02T06:09:35;90763.28;;;5.76;79.31
44481;BME280;30184;42.018;23.670;2023-04-02T06:12:10;90761.06;;;5.91;79.56
44481;BME280;30184;42.018;23.670;2023-04-02T06:14:42;90758.38;;;6.07;80.03
44481;BME280;30184;42.018;23.670;2023-04-02T06:17:13;90755.78;;;6.20;79.78
44481;BME280;30184;42.018;23.670;2023-04-02T06:19:43;90766.28;;;6.30;80.36
44481;BME280;30184;42.018;23.670;2023-04-02T06:22:17;90758.28;;;6.43;79.97
44481;BME280;30184;42.018;23.670;2023-04-02T06:24:51;90749.16;;;6.53;79.34
44481;BME280;30184;42.018;23.670;2023-04-02T06:27:23;90756.31;;;6.60;78.36
44481;BME280;30184;42.018;23.670;2023-04-02T06:29:56;90759.69;;;6.64;78.85
44481;BME280;30184;42.018;23.670;2023-04-02T06:32:29;90761.78;;;6.72;78.22
44481;BME280;30184;42.018;23.670;2023-04-02T06:34:59;90768.91;;;6.79;77.60
44481;BME280;30184;42.018;23.670;2023-04-02T06:37:31;90770.56;;;6.89;76.65
44481;BME280;30184;42.018;23.670;2023-04-02T06:40:19;90767.25;;;6.98;75.88
44481;BME280;30184;42.018;23.670;2023-04-02T06:42:55;90766.41;;;7.01;75.08
44481;BME280;30184;42.018;23.670;2023-04-02T06:45:49;90763.59;;;7.04;74.27
44481;BME280;30184;42.018;23.670;2023-04-02T06:48:33;90770.44;;;7.09;74.12
44481;BME280;30184;42.018;23.670;2023-04-02T06:51:04;90764.41;;;7.18;73.68
44481;BME280;30184;42.018;23.670;2023-04-02T06:53:37;90767.03;;;7.21;73.59
44481;BME280;30184;42.018;23.670;2023-04-02T06:56:12;90761.63;;;7.21;74.59
44481;BME280;30184;42.018;23.670;2023-04-02T06:58:46;90767.25;;;7.27;74.44
44481;BME280;30184;42.018;23.670;2023-04-02T07:01:16;90771.25;;;7.35;75.32
44481;BME280;30184;42.018;23.670;2023-04-02T07:03:48;90770.53;;;7.47;75.27
44481;BME280;30184;42.018;23.670;2023-04-02T07:06:23;90770.13;;;7.61;74.81
44481;BME280;30184;42.018;23.670;2023-04-02T07:08:56;90769.50;;;7.82;74.63
44481;BME280;30184;42.018;23.670;2023-04-02T07:11:25;90763.69;;;7.97;72.94
44481;BME280;30184;42.018;23.670;2023-04-02T07:13:58;90756.22;;;8.13;72.19
44481;BME280;30184;42.018;23.670;2023-04-02T07:16:27;90759.56;;;8.30;70.74
44481;BME280;30184;42.018;23.670;2023-04-02T07:18:57;90764.09;;;8.46;70.46
44481;BME280;30184;42.018;23.670;2023-04-02T07:21:29;90760.81;;;8.64;68.19
44481;BME280;30184;42.018;23.670;2023-04-02T07:24:00;90763.16;;;8.87;68.64
44481;BME280;30184;42.018;23.670;2023-04-02T07:26:29;90753.34;;;9.02;63.18
44481;BME280;30184;42.018;23.670;2023-04-02T07:28:58;90756.88;;;9.12;61.75
44481;BME280;30184;42.018;23.670;2023-04-02T07:31:27;90750.09;;;9.29;61.25
44481;BME280;30184;42.018;23.670;2023-04-02T07:33:57;90754.00;;;9.50;60.39
44481;BME280;30184;42.018;23.670;2023-04-02T07:36:27;90751.09;;;9.66;55.31
44481;BME280;30184;42.018;23.670;2023-04-02T07:38:57;90753.13;;;9.84;54.88
44481;BME280;30184;42.018;23.670;2023-04-02T07:41:33;90753.53;;;10.04;53.59
44481;BME280;30184;42.018;23.670;2023-04-02T07:44:02;90738.88;;;10.23;53.85
44481;BME280;30184;42.018;23.670;2023-04-02T07:46:31;90746.00;;;10.39;52.50
44481;BME280;30184;42.018;23.670;2023-04-02T07:49:00;90738.97;;;10.51;51.72
44481;BME280;30184;42.018;23.670;2023-04-02T07:51:29;90733.13;;;10.61;51.59
44481;BME280;30184;42.018;23.670;2023-04-02T07:53:58;90740.97;;;10.68;50.38
44481;BME280;30184;42.018;23.670;2023-04-02T07:56:28;90736.63;;;10.80;51.95
44481;BME280;30184;42.018;23.670;2023-04-02T07:58:59;90739.47;;;10.85;52.29
44481;BME280;30184;42.018;23.670;2023-04-02T08:01:28;90733.47;;;11.00;52.30
44481;BME280;30184;42.018;23.670;2023-04-02T08:04:02;90731.97;;;11.17;52.29
44481;BME280;30184;42.018;23.670;2023-04-02T08:06:31;90735.28;;;11.39;52.84
44481;BME280;30184;42.018;23.670;2023-04-02T08:09:00;90731.31;;;11.49;50.92
44481;BME280;30184;42.018;23.670;2023-04-02T08:11:30;90728.44;;;11.62;50.66
44481;BME280;30184;42.018;23.670;2023-04-02T08:14:00;90722.88;;;11.66;49.06
44481;BME280;30184;42.018;23.670;2023-04-02T08:16:41;90729.78;;;11.85;51.58
44481;BME280;30184;42.018;23.670;2023-04-02T08:19:11;90726.28;;;12.03;49.88
44481;BME280;30184;42.018;23.670;2023-04-02T08:21:40;90732.00;;;12.05;48.84
44481;BME280;30184;42.018;23.670;2023-04-02T08:24:09;90729.09;;;12.08;48.90
44481;BME280;30184;42.018;23.670;2023-04-02T08:26:39;90726.19;;;12.21;51.69
44481;BME280;30184;42.018;23.670;2023-04-02T08:29:10;90733.66;;;12.44;48.79
44481;BME280;30184;42.018;23.670;2023-04-02T08:31:40;90720.59;;;12.57;47.63
44481;BME280;30184;42.018;23.670;2023-04-02T08:34:09;90723.38;;;12.72;48.90
44481;BME280;30184;42.018;23.670;2023-04-02T08:36:39;90721.19;;;12.85;48.33
44481;BME280;30184;42.018;23.670;2023-04-02T08:39:09;90721.88;;;12.95;46.92
44481;BME280;30184;42.018;23.670;2023-04-02T08:41:41;90722.22;;;13.12;49.25
44481;BME280;30184;42.018;23.670;2023-04-02T08:44:25;90712.94;;;13.18;45.93
44481;BME280;30184;42.018;23.670;2023-04-02T08:46:59;90703.50;;;13.28;44.41
44481;BME280;30184;42.018;23.670;2023-04-02T08:49:30;90703.53;;;13.43;45.34
44481;BME280;30184;42.018;23.670;2023-04-02T08:52:00;90699.75;;;13.55;43.21
44481;BME280;30184;42.018;23.670;2023-04-02T08:54:29;90697.41;;;13.63;41.40
44481;BME280;30184;42.018;23.670;2023-04-02T08:57:00;90692.63;;;13.72;41.45
44481;BME280;30184;42.018;23.670;2023-04-02T08:59:34;90684.94;;;13.86;41.28
44481;BME280;30184;42.018;23.670;2023-04-02T09:02:19;90687.63;;;14.00;40.58
44481;BME280;30184;42.018;23.670;2023-04-02T09:04:52;90692.63;;;14.16;39.60
44481;BME280;30184;42.018;23.670;2023-04-02T09:07:21;90693.28;;;14.26;38.58
44481;BME280;30184;42.018;23.670;2023-04-02T09:09:50;90686.84;;;14.29;38.36
44481;BME280;30184;42.018;23.670;2023-04-02T09:12:20;90690.13;;;14.48;40.90
44481;BME280;30184;42.018;23.670;2023-04-02T09:14:58;90680.88;;;14.60;38.88
44481;BME280;30184;42.018;23.670;2023-04-02T09:17:32;90684.25;;;14.70;39.11
44481;BME280;30184;42.018;23.670;2023-04-02T09:20:12;90679.88;;;14.78;38.93
44481;BME280;30184;42.018;23.670;2023-04-02T09:22:43;90682.75;;;14.89;39.27
44481;BME280;30184;42.018;23.670;2023-04-02T09:25:14;90687.41;;;15.03;37.82
44481;BME280;30184;42.018;23.670;2023-04-02T09:27:46;90670.63;;;15.10;36.68
44481;BME280;30184;42.018;23.670;2023-04-02T09:30:19;90668.69;;;15.16;36.79
44481;BME280;30184;42.018;23.670;2023-04-02T09:32:53;90669.56;;;15.28;35.98
44481;BME280;30184;42.018;23.670;2023-04-02T09:35:24;90661.16;;;15.31;36.91
44481;BME280;30184;42.018;23.670;2023-04-02T09:40:41;90662.94;;;15.55;35.68
44481;BME280;30184;42.018;23.670;2023-04-02T09:43:12;90654.28;;;15.62;36.58
44481;BME280;30184;42.018;23.670;2023-04-02T09:45:44;90652.75;;;15.87;35.97
44481;BME280;30184;42.018;23.670;2023-04-02T09:48:23;90643.28;;;15.82;35.19
44481;BME280;30184;42.018;23.670;2023-04-02T09:51:02;90642.22;;;15.74;36.31
44481;BME280;30184;42.018;23.670;2023-04-02T09:53:32;90642.72;;;15.73;36.58
44481;BME280;30184;42.018;23.670;2023-04-02T09:56:09;90648.75;;;15.82;37.17
44481;BME280;30184;42.018;23.670;2023-04-02T09:58:39;90639.94;;;15.98;36.01
44481;BME280;30184;42.018;23.670;2023-04-02T10:01:15;90648.75;;;16.14;34.94
44481;BME280;30184;42.018;23.670;2023-04-02T10:03:53;90640.38;;;16.23;35.12
44481;BME280;30184;42.018;23.670;2023-04-02T10:06:22;90643.91;;;16.29;34.41
44481;BME280;30184;42.018;23.670;2023-04-02T10:08:57;90645.34;;;16.24;34.91
44481;BME280;30184;42.018;23.670;2023-04-02T10:11:27;90644.28;;;16.48;34.63
44481;BME280;30184;42.018;23.670;2023-04-02T10:14:03;90635.72;;;16.66;35.75
44481;BME280;30184;42.018;23.670;2023-04-02T10:16:35;90630.09;;;16.92;33.55
44481;BME280;30184;42.018;23.670;2023-04-02T10:19:10;90627.41;;;17.03;33.44
44481;BME280;30184;42.018;23.670;2023-04-02T10:21:43;90626.88;;;16.99;33.93
44481;BME280;30184;42.018;23.670;2023-04-02T10:24:14;90612.78;;;17.23;32.33
44481;BME280;30184;42.018;23.670;2023-04-02T10:26:45;90608.84;;;17.40;32.66
44481;BME280;30184;42.018;23.670;2023-04-02T10:29:20;90594.94;;;17.61;33.06
44481;BME280;30184;42.018;23.670;2023-04-02T10:31:56;90591.97;;;17.81;31.86
44481;BME280;30184;42.018;23.670;2023-04-02T10:34:28;90599.72;;;17.82;31.56
44481;BME280;30184;42.018;23.670;2023-04-02T10:37:06;90590.97;;;17.84;31.59
44481;BME280;30184;42.018;23.670;2023-04-02T10:39:40;90602.94;;;17.81;31.18
44481;BME280;30184;42.018;23.670;2023-04-02T10:42:14;90602.66;;;17.62;31.30
44481;BME280;30184;42.018;23.670;2023-04-02T10:44:49;90592.69;;;17.59;31.91
44481;BME280;30184;42.018;23.670;2023-04-02T10:47:26;90598.19;;;17.70;31.50
44481;BME280;30184;42.018;23.670;2023-04-02T10:50:01;90593.72;;;17.67;31.42
44481;BME280;30184;42.018;23.670;2023-04-02T10:52:37;90588.50;;;17.86;31.68
44481;BME280;30184;42.018;23.670;2023-04-02T10:55:12;90598.72;;;18.02;32.07
44481;BME280;30184;42.018;23.670;2023-04-02T10:57:43;90592.25;;;18.16;30.09
44481;BME280;30184;42.018;23.670;2023-04-02T11:00:14;90600.47;;;18.11;29.50
44481;BME280;30184;42.018;23.670;2023-04-02T11:02:48;90602.19;;;17.75;29.07
44481;BME280;30184;42.018;23.670;2023-04-02T11:05:20;90609.44;;;17.83;29.62
44481;BME280;30184;42.018;23.670;2023-04-02T11:07:52;90608.66;;;17.66;29.94
44481;BME280;30184;42.018;23.670;2023-04-02T11:10:22;90608.13;;;17.57;30.03
44481;BME280;30184;42.018;23.670;2023-04-02T11:12:53;90613.88;;;17.59;30.51
44481;BME280;30184;42.018;23.670;2023-04-02T11:15:24;90609.59;;;17.41;30.55
44481;BME280;30184;42.018;23.670;2023-04-02T11:17:55;90607.00;;;17.09;30.42
44481;BME280;30184;42.018;23.670;2023-04-02T11:23:31;90608.88;;;16.75;30.41
44481;BME280;30184;42.018;23.670;2023-04-02T11:26:27;90599.00;;;17.00;30.71
44481;BME280;30184;42.018;23.670;2023-04-02T11:29:04;90598.34;;;17.33;29.97
44481;BME280;30184;42.018;23.670;2023-04-02T11:31:34;90596.34;;;17.28;29.90
44481;BME280;30184;42.018;23.670;2023-04-02T11:34:05;90600.06;;;17.20;30.55
44481;BME280;30184;42.018;23.670;2023-04-02T11:42:21;90598.34;;;17.28;29.14
44481;BME280;30184;42.018;23.670;2023-04-02T11:44:51;90602.00;;;17.02;29.58
44481;BME280;30184;42.018;23.670;2023-04-02T11:47:20;90604.00;;;17.07;29.33
44481;BME280;30184;42.018;23.670;2023-04-02T11:52:49;90597.22;;;16.86;28.76
44481;BME280;30184;42.018;23.670;2023-04-02T11:55:21;90602.38;;;16.73;29.19
44481;BME280;30184;42.018;23.670;2023-04-02T12:01:00;90597.28;;;17.03;29.01
44481;BME280;30184;42.018;23.670;2023-04-02T12:03:40;90591.53;;;17.06;29.08
44481;BME280;30184;42.018;23.670;2023-04-02T12:06:18;90592.59;;;17.26;29.04
44481;BME280;30184;42.018;23.670;2023-04-02T12:08:55;90580.16;;;17.36;28.60
44481;BME280;30184;42.018;23.670;2023-04-02T12:11:32;90585.13;;;17.26;29.15
44481;BME280;30184;42.018;23.670;2023-04-02T12:14:05;90599.00;;;17.00;29.52
44481;BME280;30184;42.018;23.670;2023-04-02T12:16:35;90593.50;;;16.95;29.61
44481;BME280;30184;42.018;23.670;2023-04-02T12:19:06;90591.25;;;16.93;28.21
44481;BME280;30184;42.018;23.670;2023-04-02T12:21:35;90587.03;;;16.98;29.82
44481;BME280;30184;42.018;23.670;2023-04-02T12:24:11;90585.03;;;16.98;29.37
44481;BME280;30184;42.018;23.670;2023-04-02T12:26:45;90586.25;;;16.92;29.39
44481;BME280;30184;42.018;23.670;2023-04-02T12:29:24;90500.34;;;16.35;29.32
44481;BME280;30184;42.018;23.670;2023-04-02T12:31:54;90578.56;;;16.96;28.25
44481;BME280;30184;42.018;23.670;2023-04-02T12:34:30;90585.66;;;16.71;28.39
44481;BME280;30184;42.018;23.670;2023-04-02T12:36:59;90570.31;;;16.90;28.34
44481;BME280;30184;42.018;23.670;2023-04-02T12:39:32;90572.13;;;17.04;28.30
44481;BME280;30184;42.018;23.670;2023-04-02T12:42:01;90566.19;;;17.23;27.95
44481;BME280;30184;42.018;23.670;2023-04-02T12:44:30;90567.69;;;17.35;28.11
44481;BME280;30184;42.018;23.670;2023-04-02T12:47:05;90564.47;;;17.53;27.16
44481;BME280;30184;42.018;23.670;2023-04-02T12:49:34;90565.53;;;17.67;26.73
44481;BME280;30184;42.018;23.670;2023-04-02T12:52:05;90565.28;;;17.76;27.02
44481;BME280;30184;42.018;23.670;2023-04-02T12:54:37;90568.75;;;17.71;26.73
44481;BME280;30184;42.018;23.670;2023-04-02T12:57:21;90569.00;;;17.73;27.33
44481;BME280;30184;42.018;23.670;2023-04-02T12:59:51;90566.03;;;17.87;26.59
44481;BME280;30184;42.018;23.670;2023-04-02T13:02:20;90568.28;;;17.95;26.75
44481;BME280;30184;42.018;23.670;2023-04-02T13:04:51;90559.53;;;18.07;26.24
44481;BME280;30184;42.018;23.670;2023-04-02T13:07:20;90566.53;;;17.92;25.26
44481;BME280;30184;42.018;23.670;2023-04-02T13:09:53;90567.53;;;17.94;25.62
44481;BME280;30184;42.018;23.670;2023-04-02T13:12:26;90559.03;;;17.92;26.97
44481;BME280;30184;42.018;23.670;2023-04-02T13:14:58;90558.28;;;17.92;26.44
44481;BME280;30184;42.018;23.670;2023-04-02T13:17:35;90548.31;;;18.05;25.72
44481;BME280;30184;42.018;23.670;2023-04-02T13:20:26;90552.53;;;18.12;26.02
44481;BME280;30184;42.018;23.670;2023-04-02T13:22:55;90552.53;;;18.17;26.34
44481;BME280;30184;42.018;23.670;2023-04-02T13:25:28;90547.53;;;18.27;25.33
44481;BME280;30184;42.018;23.670;2023-04-02T13:27:57;90550.78;;;18.20;26.21
44481;BME280;30184;42.018;23.670;2023-04-02T13:30:27;90558.75;;;18.29;25.48
44481;BME280;30184;42.018;23.670;2023-04-02T13:32:56;90558.50;;;18.33;25.89
44481;BME280;30184;42.018;23.670;2023-04-02T13:35:25;90556.50;;;18.27;25.59
44481;BME280;30184;42.018;23.670;2023-04-02T13:37:54;90553.53;;;18.25;26.21
44481;BME280;30184;42.018;23.670;2023-04-02T13:40:23;90559.25;;;18.27;25.17
44481;BME280;30184;42.018;23.670;2023-04-02T13:42:56;90551.53;;;18.20;24.93
44481;BME280;30184;42.018;23.670;2023-04-02T13:45:26;90554.78;;;18.13;25.65